sensor_id;sensor_type;location;lat;lon;timestamp;pressure;altitude;pressure_sealevel;temperature;humidity
7824;BME280;3957;48.61947800;9.05303100;2023-02-21T00:00:33;96542.66;;;4.43;83.51
7824;BME280;3957;48.61947800;9.05303100;2023-02-21T00:01:52;96542.59;;;4.35;83.92
7824;BME280;3957;48.61947800;9.05303100;2023-02-21T00:03:10;96549.56;;;4.36;83.95
7824;BME280;3957;48.61947800;9.05303100;2023-02-21T00:04:30;96542.34;;;4.46;83.03
7824;BME280;3957;48.61947800;9.05303100;2023-02-21T00:05:48;96542.03;;;4.49;83.18
7824;BME280;3957;48.61947800;9.05303100;2023-02-21T00:07:07;96546.81;;;4.46;82.86
7824;BME280;3957;48.61947800;9.05303100;2023-02-21T00:08:26;96540.09;;;4.33;84.04
7824;BME280;3957;48.61947800;9.05303100;2023-02-21T00:09:45;96542.44;;;4.18;83.96
7824;BME280;3957;48.61947800;9.05303100;2023-02-21T00:11:04;96536.94;;;4.12;84.43
7824;BME280;3957;48.61947800;9.05303100;2023-02-21T00:12:23;96543.38;;;4.09;84.55
7824;BME280;3957;48.61947800;9.05303100;2023-02-21T00:13:42;96536.78;;;4.13;83.91
7824;BME280;3957;48.61947800;9.05303100;2023-02-21T00:15:01;96542.75;;;4.15;84.41
7824;BME280;3957;48.61947800;9.05303100;2023-02-21T00:16:20;96529.44;;;4.07;84.12
7824;BME280;3957;48.61947800;9.05303100;2023-02-21T00:17:39;96544.28;;;4.00;85.01
7824;BME280;3957;48.61947800;9.05303100;2023-02-21T00:18:58;96534.31;;;3.94;84.52
7824;BME280;3957;48.61947800;9.05303100;2023-02-21T00:20:16;96537.84;;;3.84;84.86
7824;BME280;3957;48.61947800;9.05303100;2023-02-21T00:21:35;96530.56;;;3.86;85.31
7824;BME280;3957;48.61947800;9.05303100;2023-02-21T00:22:54;96534.59;;;4.08;83.84
7824;BME280;3957;48.61947800;9.05303100;2023-02-21T00:24:15;96535.63;;;3.98;83.85
7824;BME280;3957;48.61947800;9.05303100;2023-02-21T00:25:34;96526.47;;;4.10;83.72
7824;BME280;3957;48.61947800;9.05303100;2023-02-21T00:26:53;96527.88;;;4.40;81.97
7824;BME280;3957;48.61947800;9.05303100;2023-02-21T00:28:12;96523.81;;;4.46;80.33
7824;BME280;3957;48.61947800;9.05303100;2023-02-21T00:29:31;96526.59;;;4.45;80.56
7824;BME280;3957;48.61947800;9.05303100;2023-02-21T00:30:50;96529.00;;;4.56;79.95
7824;BME280;3957;48.61947800;9.05303100;2023-02-21T00:32:09;96528.00;;;4.57;79.84
7824;BME280;3957;48.61947800;9.05303100;2023-02-21T00:33:28;96527.50;;;4.53;80.43
7824;BME280;3957;48.61947800;9.05303100;2023-02-21T00:34:47;96519.00;;;4.76;78.96
7824;BME280;3957;48.61947800;9.05303100;2023-02-21T00:36:06;96518.81;;;4.69;78.66
7824;BME280;3957;48.61947800;9.05303100;2023-02-21T00:37:25;96522.50;;;4.50;79.69
7824;BME280;3957;48.61947800;9.05303100;2023-02-21T00:38:44;96523.59;;;4.66;79.03
7824;BME280;3957;48.61947800;9.05303100;2023-02-21T00:40:03;96522.91;;;4.64;78.92
7824;BME280;3957;48.61947800;9.05303100;2023-02-21T00:41:22;96518.03;;;4.51;80.14
7824;BME280;3957;48.61947800;9.05303100;2023-02-21T00:42:41;96525.94;;;4.42;80.15
7824;BME280;3957;48.61947800;9.05303100;2023-02-21T00:44:00;96522.47;;;4.68;79.16
7824;BME280;3957;48.61947800;9.05303100;2023-02-21T00:45:19;96516.41;;;4.84;78.38
7824;BME280;3957;48.61947800;9.05303100;2023-02-21T00:46:37;96512.41;;;4.80;77.98
7824;BME280;3957;48.61947800;9.05303100;2023-02-21T00:47:56;96514.19;;;4.71;78.07
7824;BME280;3957;48.61947800;9.05303100;2023-02-21T00:49:15;96516.78;;;4.89;77.31
7824;BME280;3957;48.61947800;9.05303100;2023-02-21T00:50:34;96514.09;;;4.81;78.33
7824;BME280;3957;48.61947800;9.05303100;2023-02-21T00:51:53;96513.16;;;4.64;78.92
7824;BME280;3957;48.61947800;9.05303100;2023-02-21T00:53:12;96503.09;;;4.76;78.01
7824;BME280;3957;48.61947800;9.05303100;2023-02-21T00:54:32;96510.56;;;4.72;78.57
7824;BME280;3957;48.61947800;9.05303100;2023-02-21T00:55:51;96504.56;;;4.70;78.09
7824;BME280;3957;48.61947800;9.05303100;2023-02-21T00:57:11;96509.34;;;4.67;78.58
7824;BME280;3957;48.61947800;9.05303100;2023-02-21T00:58:30;96509.38;;;4.49;79.20
7824;BME280;3957;48.61947800;9.05303100;2023-02-21T00:59:48;96515.38;;;4.51;79.38
7824;BME280;3957;48.61947800;9.05303100;2023-02-21T01:01:08;96514.31;;;4.62;78.57
7824;BME280;3957;48.61947800;9.05303100;2023-02-21T01:02:27;96513.94;;;4.56;79.18
7824;BME280;3957;48.61947800;9.05303100;2023-02-21T01:03:46;96515.47;;;4.41;79.98
7824;BME280;3957;48.61947800;9.05303100;2023-02-21T01:05:05;96510.13;;;4.33;80.00
7824;BME280;3957;48.61947800;9.05303100;2023-02-21T01:06:24;96515.03;;;4.28;80.66
7824;BME280;3957;48.61947800;9.05303100;2023-02-21T01:07:43;96507.81;;;4.12;81.25
7824;BME280;3957;48.61947800;9.05303100;2023-02-21T01:09:02;96508.88;;;4.01;81.82
7824;BME280;3957;48.61947800;9.05303100;2023-02-21T01:10:21;96511.22;;;3.86;82.57
7824;BME280;3957;48.61947800;9.05303100;2023-02-21T01:11:40;96513.25;;;3.74;83.18
7824;BME280;3957;48.61947800;9.05303100;2023-02-21T01:12:59;96512.34;;;3.65;83.52
7824;BME280;3957;48.61947800;9.05303100;2023-02-21T01:14:18;96515.06;;;3.55;84.47
7824;BME280;3957;48.61947800;9.05303100;2023-02-21T01:15:37;96516.41;;;3.60;84.46
7824;BME280;3957;48.61947800;9.05303100;2023-02-21T01:16:57;96514.34;;;3.53;84.65
7824;BME280;3957;48.61947800;9.05303100;2023-02-21T01:18:16;96509.75;;;3.55;85.38
7824;BME280;3957;48.61947800;9.05303100;2023-02-21T01:19:36;96499.34;;;3.54;85.09
7824;BME280;3957;48.61947800;9.05303100;2023-02-21T01:20:55;96505.34;;;3.46;85.31
7824;BME280;3957;48.61947800;9.05303100;2023-02-21T01:22:14;96510.41;;;3.39;85.52
7824;BME280;3957;48.61947800;9.05303100;2023-02-21T01:23:33;96510.13;;;3.43;86.51
7824;BME280;3957;48.61947800;9.05303100;2023-02-21T01:24:52;96508.88;;;3.37;86.11
7824;BME280;3957;48.61947800;9.05303100;2023-02-21T01:26:11;96505.56;;;3.35;86.73
7824;BME280;3957;48.61947800;9.05303100;2023-02-21T01:27:31;96503.47;;;3.38;87.36
7824;BME280;3957;48.61947800;9.05303100;2023-02-21T01:28:50;96503.22;;;3.32;87.19
7824;BME280;3957;48.61947800;9.05303100;2023-02-21T01:30:09;96502.53;;;3.30;87.20
7824;BME280;3957;48.61947800;9.05303100;2023-02-21T01:31:28;96505.41;;;3.36;87.41
7824;BME280;3957;48.61947800;9.05303100;2023-02-21T01:32:47;96508.06;;;3.36;88.11
7824;BME280;3957;48.61947800;9.05303100;2023-02-21T01:34:06;96502.53;;;3.30;88.02
7824;BME280;3957;48.61947800;9.05303100;2023-02-21T01:35:25;96501.16;;;3.26;88.47
7824;BME280;3957;48.61947800;9.05303100;2023-02-21T01:36:44;96507.06;;;3.19;88.87
7824;BME280;3957;48.61947800;9.05303100;2023-02-21T01:38:03;96501.00;;;3.27;88.76
7824;BME280;3957;48.61947800;9.05303100;2023-02-21T01:39:22;96505.22;;;3.20;89.07
7824;BME280;3957;48.61947800;9.05303100;2023-02-21T01:40:41;96507.47;;;3.15;89.57
7824;BME280;3957;48.61947800;9.05303100;2023-02-21T01:42:00;96503.59;;;3.09;89.88
7824;BME280;3957;48.61947800;9.05303100;2023-02-21T01:43:22;96506.19;;;3.19;90.22
7824;BME280;3957;48.61947800;9.05303100;2023-02-21T01:44:43;96501.81;;;3.10;90.23
7824;BME280;3957;48.61947800;9.05303100;2023-02-21T01:46:03;96500.88;;;3.29;89.95
7824;BME280;3957;48.61947800;9.05303100;2023-02-21T01:47:23;96493.31;;;3.34;90.09
7824;BME280;3957;48.61947800;9.05303100;2023-02-21T01:48:42;96501.81;;;3.37;89.52
7824;BME280;3957;48.61947800;9.05303100;2023-02-21T01:50:06;96495.97;;;3.34;90.36
7824;BME280;3957;48.61947800;9.05303100;2023-02-21T01:51:31;96496.50;;;3.37;90.30
7824;BME280;3957;48.61947800;9.05303100;2023-02-21T01:52:52;96500.47;;;3.51;89.34
7824;BME280;3957;48.61947800;9.05303100;2023-02-21T01:54:12;96496.69;;;3.54;89.64
7824;BME280;3957;48.61947800;9.05303100;2023-02-21T01:55:31;96495.66;;;3.65;89.27
7824;BME280;3957;48.61947800;9.05303100;2023-02-21T01:56:51;96493.50;;;3.68;88.75
7824;BME280;3957;48.61947800;9.05303100;2023-02-21T01:58:11;96490.88;;;3.68;88.64
7824;BME280;3957;48.61947800;9.05303100;2023-02-21T01:59:30;96490.63;;;3.62;89.23
7824;BME280;3957;48.61947800;9.05303100;2023-02-21T02:00:49;96494.34;;;3.51;89.49
7824;BME280;3957;48.61947800;9.05303100;2023-02-21T02:02:21;96487.47;;;3.58;89.43
7824;BME280;3957;48.61947800;9.05303100;2023-02-21T02:03:43;96491.56;;;3.52;88.87
7824;BME280;3957;48.61947800;9.05303100;2023-02-21T02:05:04;96486.84;;;3.82;88.48
7824;BME280;3957;48.61947800;9.05303100;2023-02-21T02:06:25;96488.22;;;3.86;87.31
7824;BME280;3957;48.61947800;9.05303100;2023-02-21T02:07:44;96482.19;;;3.76;87.67
7824;BME280;3957;48.61947800;9.05303100;2023-02-21T02:09:17;96489.41;;;3.92;87.38
7824;BME280;3957;48.61947800;9.05303100;2023-02-21T02:10:37;96487.91;;;4.07;86.67
7824;BME280;3957;48.61947800;9.05303100;2023-02-21T02:13:44;96485.31;;;3.98;86.71
7824;BME280;3957;48.61947800;9.05303100;2023-02-21T02:15:14;96485.31;;;3.98;86.25
7824;BME280;3957;48.61947800;9.05303100;2023-02-21T02:16:36;96486.34;;;3.97;85.61
7824;BME280;3957;48.61947800;9.05303100;2023-02-21T02:21:13;96481.09;;;4.05;85.53
7824;BME280;3957;48.61947800;9.05303100;2023-02-21T02:22:30;96478.47;;;4.05;85.58
7824;BME280;3957;48.61947800;9.05303100;2023-02-21T02:26:38;96481.91;;;4.23;84.55
7824;BME280;3957;48.61947800;9.05303100;2023-02-21T02:28:15;96476.75;;;4.22;83.70
7824;BME280;3957;48.61947800;9.05303100;2023-02-21T02:34:58;96478.81;;;4.28;83.59
7824;BME280;3957;48.61947800;9.05303100;2023-02-21T02:36:12;96468.97;;;4.20;84.17
7824;BME280;3957;48.61947800;9.05303100;2023-02-21T02:38:25;96468.22;;;4.28;83.80
7824;BME280;3957;48.61947800;9.05303100;2023-02-21T02:44:28;96471.84;;;4.27;83.01
7824;BME280;3957;48.61947800;9.05303100;2023-02-21T02:45:37;96466.25;;;4.12;83.53
7824;BME280;3957;48.61947800;9.05303100;2023-02-21T02:46:42;96466.41;;;4.11;83.64
7824;BME280;3957;48.61947800;9.05303100;2023-02-21T02:47:47;96456.38;;;4.22;82.76
7824;BME280;3957;48.61947800;9.05303100;2023-02-21T02:48:59;96456.94;;;4.26;82.53
7824;BME280;3957;48.61947800;9.05303100;2023-02-21T02:50:03;96445.84;;;4.31;83.06
7824;BME280;3957;48.61947800;9.05303100;2023-02-21T02:51:10;96453.75;;;4.49;81.15
7824;BME280;3957;48.61947800;9.05303100;2023-02-21T02:52:12;96447.97;;;4.80;79.37
7824;BME280;3957;48.61947800;9.05303100;2023-02-21T02:53:22;96452.44;;;4.87;79.06
7824;BME280;3957;48.61947800;9.05303100;2023-02-21T02:54:24;96452.75;;;4.76;79.11
7824;BME280;3957;48.61947800;9.05303100;2023-02-21T02:55:33;96450.69;;;4.62;79.90
7824;BME280;3957;48.61947800;9.05303100;2023-02-21T02:56:35;96454.25;;;4.79;79.01
7824;BME280;3957;48.61947800;9.05303100;2023-02-21T02:57:36;96448.91;;;4.70;79.45
7824;BME280;3957;48.61947800;9.05303100;2023-02-21T02:58:51;96441.84;;;4.87;78.08
7824;BME280;3957;48.61947800;9.05303100;2023-02-21T02:59:53;96448.94;;;4.79;78.67
7824;BME280;3957;48.61947800;9.05303100;2023-02-21T03:05:35;96453.69;;;4.67;78.71
7824;BME280;3957;48.61947800;9.05303100;2023-02-21T03:07:28;96449.66;;;4.54;79.83
7824;BME280;3957;48.61947800;9.05303100;2023-02-21T03:09:47;96444.22;;;4.30;80.84
7824;BME280;3957;48.61947800;9.05303100;2023-02-21T03:11:28;96442.44;;;4.38;80.17
7824;BME280;3957;48.61947800;9.05303100;2023-02-21T03:12:43;96443.06;;;4.67;78.64
7824;BME280;3957;48.61947800;9.05303100;2023-02-21T03:13:49;96444.94;;;4.74;78.13
7824;BME280;3957;48.61947800;9.05303100;2023-02-21T03:15:01;96440.63;;;4.73;77.99
7824;BME280;3957;48.61947800;9.05303100;2023-02-21T03:17:16;96444.66;;;4.86;76.69
7824;BME280;3957;48.61947800;9.05303100;2023-02-21T03:18:30;96449.03;;;4.95;75.74
7824;BME280;3957;48.61947800;9.05303100;2023-02-21T03:19:37;96440.66;;;4.82;76.68
7824;BME280;3957;48.61947800;9.05303100;2023-02-21T03:20:39;96439.84;;;4.81;76.26
7824;BME280;3957;48.61947800;9.05303100;2023-02-21T03:21:50;96439.06;;;4.89;76.86
7824;BME280;3957;48.61947800;9.05303100;2023-02-21T03:22:54;96440.25;;;4.94;76.27
7824;BME280;3957;48.61947800;9.05303100;2023-02-21T03:23:57;96444.56;;;5.04;75.89
7824;BME280;3957;48.61947800;9.05303100;2023-02-21T03:25:01;96442.84;;;4.86;75.75
7824;BME280;3957;48.61947800;9.05303100;2023-02-21T03:26:07;96444.78;;;4.76;76.42
7824;BME280;3957;48.61947800;9.05303100;2023-02-21T03:27:12;96444.13;;;4.74;76.96
7824;BME280;3957;48.61947800;9.05303100;2023-02-21T03:28:18;96438.13;;;4.72;76.61
7824;BME280;3957;48.61947800;9.05303100;2023-02-21T03:29:20;96441.22;;;4.59;77.89
7824;BME280;3957;48.61947800;9.05303100;2023-02-21T03:30:21;96445.78;;;4.49;78.74
7824;BME280;3957;48.61947800;9.05303100;2023-02-21T03:31:29;96438.09;;;4.64;77.77
7824;BME280;3957;48.61947800;9.05303100;2023-02-21T03:32:36;96436.34;;;4.72;77.26
7824;BME280;3957;48.61947800;9.05303100;2023-02-21T03:33:38;96437.16;;;4.73;76.94
7824;BME280;3957;48.61947800;9.05303100;2023-02-21T03:34:42;96443.47;;;4.80;76.32
7824;BME280;3957;48.61947800;9.05303100;2023-02-21T03:35:45;96439.06;;;4.63;77.61
7824;BME280;3957;48.61947800;9.05303100;2023-02-21T03:36:48;96442.84;;;4.52;77.71
7824;BME280;3957;48.61947800;9.05303100;2023-02-21T03:37:51;96442.97;;;4.42;78.28
7824;BME280;3957;48.61947800;9.05303100;2023-02-21T03:38:54;96431.06;;;4.46;78.52
7824;BME280;3957;48.61947800;9.05303100;2023-02-21T03:39:55;96434.00;;;4.43;78.46
7824;BME280;3957;48.61947800;9.05303100;2023-02-21T03:40:55;96435.72;;;4.52;77.62
7824;BME280;3957;48.61947800;9.05303100;2023-02-21T03:41:56;96435.13;;;4.67;77.11
7824;BME280;3957;48.61947800;9.05303100;2023-02-21T03:42:58;96439.44;;;4.68;77.01
7824;BME280;3957;48.61947800;9.05303100;2023-02-21T03:44:00;96424.91;;;4.80;76.01
7824;BME280;3957;48.61947800;9.05303100;2023-02-21T03:45:01;96434.31;;;4.66;77.32
7824;BME280;3957;48.61947800;9.05303100;2023-02-21T03:46:01;96435.41;;;4.55;77.53
7824;BME280;3957;48.61947800;9.05303100;2023-02-21T03:47:02;96434.06;;;4.51;77.81
7824;BME280;3957;48.61947800;9.05303100;2023-02-21T03:48:03;96432.38;;;4.42;78.52
7824;BME280;3957;48.61947800;9.05303100;2023-02-21T03:49:04;96430.53;;;4.42;78.84
7824;BME280;3957;48.61947800;9.05303100;2023-02-21T03:50:05;96434.84;;;4.70;77.49
7824;BME280;3957;48.61947800;9.05303100;2023-02-21T03:51:09;96430.47;;;4.60;78.33
7824;BME280;3957;48.61947800;9.05303100;2023-02-21T03:52:11;96433.78;;;4.63;77.58
7824;BME280;3957;48.61947800;9.05303100;2023-02-21T03:53:13;96432.28;;;4.60;78.10
7824;BME280;3957;48.61947800;9.05303100;2023-02-21T03:54:16;96425.59;;;4.48;78.38
7824;BME280;3957;48.61947800;9.05303100;2023-02-21T03:55:21;96431.50;;;4.41;78.91
7824;BME280;3957;48.61947800;9.05303100;2023-02-21T03:56:23;96435.16;;;4.40;79.45
7824;BME280;3957;48.61947800;9.05303100;2023-02-21T03:57:35;96439.16;;;4.45;79.29
7824;BME280;3957;48.61947800;9.05303100;2023-02-21T03:58:35;96437.28;;;4.37;79.84
7824;BME280;3957;48.61947800;9.05303100;2023-02-21T03:59:36;96439.56;;;4.32;80.11
7824;BME280;3957;48.61947800;9.05303100;2023-02-21T04:00:37;96438.06;;;4.29;80.02
7824;BME280;3957;48.61947800;9.05303100;2023-02-21T04:01:37;96434.28;;;4.32;79.98
7824;BME280;3957;48.61947800;9.05303100;2023-02-21T04:02:37;96432.72;;;4.21;80.57
7824;BME280;3957;48.61947800;9.05303100;2023-02-21T04:03:38;96433.78;;;4.36;79.95
7824;BME280;3957;48.61947800;9.05303100;2023-02-21T04:04:38;96427.56;;;4.19;81.10
7824;BME280;3957;48.61947800;9.05303100;2023-02-21T04:05:45;96436.91;;;4.05;81.33
7824;BME280;3957;48.61947800;9.05303100;2023-02-21T04:06:46;96437.66;;;3.98;82.11
7824;BME280;3957;48.61947800;9.05303100;2023-02-21T04:07:46;96439.78;;;4.12;81.97
7824;BME280;3957;48.61947800;9.05303100;2023-02-21T04:08:47;96432.91;;;4.01;81.82
7824;BME280;3957;48.61947800;9.05303100;2023-02-21T04:09:48;96437.63;;;3.89;82.34
7824;BME280;3957;48.61947800;9.05303100;2023-02-21T04:10:53;96438.78;;;3.87;83.49
7824;BME280;3957;48.61947800;9.05303100;2023-02-21T04:11:58;96437.97;;;3.95;83.68
7824;BME280;3957;48.61947800;9.05303100;2023-02-21T04:12:59;96435.25;;;4.04;83.46
7824;BME280;3957;48.61947800;9.05303100;2023-02-21T04:14:01;96436.63;;;3.90;83.79
7824;BME280;3957;48.61947800;9.05303100;2023-02-21T04:15:04;96429.97;;;3.86;84.08
7824;BME280;3957;48.61947800;9.05303100;2023-02-21T04:16:04;96436.91;;;4.05;83.88
7824;BME280;3957;48.61947800;9.05303100;2023-02-21T04:17:07;96428.97;;;4.32;82.72
7824;BME280;3957;48.61947800;9.05303100;2023-02-21T04:18:08;96427.97;;;4.59;81.03
7824;BME280;3957;48.61947800;9.05303100;2023-02-21T04:19:11;96424.34;;;4.60;80.68
7824;BME280;3957;48.61947800;9.05303100;2023-02-21T04:20:13;96426.50;;;4.65;80.60
7824;BME280;3957;48.61947800;9.05303100;2023-02-21T04:21:18;96427.44;;;4.55;80.99
7824;BME280;3957;48.61947800;9.05303100;2023-02-21T04:22:19;96427.22;;;4.75;80.25
7824;BME280;3957;48.61947800;9.05303100;2023-02-21T04:23:21;96429.94;;;4.57;80.68
7824;BME280;3957;48.61947800;9.05303100;2023-02-21T04:24:22;96427.53;;;4.72;80.36
7824;BME280;3957;48.61947800;9.05303100;2023-02-21T04:25:23;96428.91;;;4.84;79.42
7824;BME280;3957;48.61947800;9.05303100;2023-02-21T04:26:27;96423.16;;;4.63;80.51
7824;BME280;3957;48.61947800;9.05303100;2023-02-21T04:27:29;96422.25;;;4.46;81.07
7824;BME280;3957;48.61947800;9.05303100;2023-02-21T04:28:30;96428.97;;;4.32;81.73
7824;BME280;3957;48.61947800;9.05303100;2023-02-21T04:29:31;96422.06;;;4.39;81.80
7824;BME280;3957;48.61947800;9.05303100;2023-02-21T04:30:31;96426.31;;;4.32;82.93
7824;BME280;3957;48.61947800;9.05303100;2023-02-21T04:31:32;96432.66;;;4.39;82.06
7824;BME280;3957;48.61947800;9.05303100;2023-02-21T04:32:35;96430.91;;;4.48;81.57
7824;BME280;3957;48.61947800;9.05303100;2023-02-21T04:33:42;96428.72;;;4.43;82.18
7824;BME280;3957;48.61947800;9.05303100;2023-02-21T04:34:45;96424.97;;;4.28;82.45
7824;BME280;3957;48.61947800;9.05303100;2023-02-21T04:35:46;96425.63;;;4.21;82.89
7824;BME280;3957;48.61947800;9.05303100;2023-02-21T04:36:56;96426.75;;;4.19;83.45
7824;BME280;3957;48.61947800;9.05303100;2023-02-21T04:37:56;96429.91;;;4.22;83.82
7824;BME280;3957;48.61947800;9.05303100;2023-02-21T04:38:58;96431.63;;;4.32;82.78
7824;BME280;3957;48.61947800;9.05303100;2023-02-21T04:39:58;96428.47;;;4.28;82.62
7824;BME280;3957;48.61947800;9.05303100;2023-02-21T04:40:59;96436.38;;;4.20;83.18
7824;BME280;3957;48.61947800;9.05303100;2023-02-21T04:41:59;96445.56;;;4.07;83.62
7824;BME280;3957;48.61947800;9.05303100;2023-02-21T04:42:59;96433.78;;;4.10;84.25
7824;BME280;3957;48.61947800;9.05303100;2023-02-21T04:44:00;96430.56;;;3.98;84.76
7824;BME280;3957;48.61947800;9.05303100;2023-02-21T04:45:05;96434.97;;;4.07;84.89
7824;BME280;3957;48.61947800;9.05303100;2023-02-21T04:46:05;96427.69;;;4.09;84.38
7824;BME280;3957;48.61947800;9.05303100;2023-02-21T04:47:06;96434.66;;;3.92;84.81
7824;BME280;3957;48.61947800;9.05303100;2023-02-21T04:48:06;96427.31;;;3.86;86.06
7824;BME280;3957;48.61947800;9.05303100;2023-02-21T04:49:07;96432.72;;;3.77;86.19
7824;BME280;3957;48.61947800;9.05303100;2023-02-21T04:50:07;96427.34;;;3.68;86.56
7824;BME280;3957;48.61947800;9.05303100;2023-02-21T04:51:08;96426.13;;;3.63;87.88
7824;BME280;3957;48.61947800;9.05303100;2023-02-21T04:52:08;96429.03;;;3.51;88.19
7824;BME280;3957;48.61947800;9.05303100;2023-02-21T04:53:08;96425.16;;;3.46;88.70
7824;BME280;3957;48.61947800;9.05303100;2023-02-21T04:54:09;96426.00;;;3.46;89.11
7824;BME280;3957;48.61947800;9.05303100;2023-02-21T04:55:09;96431.34;;;3.54;89.64
7824;BME280;3957;48.61947800;9.05303100;2023-02-21T04:56:09;96428.56;;;3.74;89.14
7824;BME280;3957;48.61947800;9.05303100;2023-02-21T04:57:11;96424.25;;;3.73;88.72
7824;BME280;3957;48.61947800;9.05303100;2023-02-21T04:58:12;96422.91;;;3.69;89.05
7824;BME280;3957;48.61947800;9.05303100;2023-02-21T04:59:12;96426.53;;;3.68;89.02
7824;BME280;3957;48.61947800;9.05303100;2023-02-21T05:00:14;96434.28;;;3.87;88.42
7824;BME280;3957;48.61947800;9.05303100;2023-02-21T05:01:17;96420.81;;;3.99;87.58
7824;BME280;3957;48.61947800;9.05303100;2023-02-21T05:02:18;96422.31;;;4.01;88.00
7824;BME280;3957;48.61947800;9.05303100;2023-02-21T05:03:18;96419.34;;;4.04;87.92
7824;BME280;3957;48.61947800;9.05303100;2023-02-21T05:04:19;96422.47;;;4.00;87.97
7824;BME280;3957;48.61947800;9.05303100;2023-02-21T05:05:19;96428.81;;;4.07;88.10
7824;BME280;3957;48.61947800;9.05303100;2023-02-21T05:06:21;96418.13;;;4.17;87.81
7824;BME280;3957;48.61947800;9.05303100;2023-02-21T05:07:22;96418.44;;;4.40;86.87
7824;BME280;3957;48.61947800;9.05303100;2023-02-21T05:08:22;96413.19;;;4.48;86.32
7824;BME280;3957;48.61947800;9.05303100;2023-02-21T05:09:23;96411.44;;;4.65;85.16
7824;BME280;3957;48.61947800;9.05303100;2023-02-21T05:10:23;96410.94;;;4.62;85.51
7824;BME280;3957;48.61947800;9.05303100;2023-02-21T05:11:25;96413.00;;;4.50;85.89
7824;BME280;3957;48.61947800;9.05303100;2023-02-21T05:12:25;96410.59;;;4.65;84.99
7824;BME280;3957;48.61947800;9.05303100;2023-02-21T05:13:26;96410.47;;;4.74;84.34
7824;BME280;3957;48.61947800;9.05303100;2023-02-21T05:14:26;96415.94;;;4.73;83.75
7824;BME280;3957;48.61947800;9.05303100;2023-02-21T05:15:27;96414.75;;;4.67;84.63
7824;BME280;3957;48.61947800;9.05303100;2023-02-21T05:16:27;96415.66;;;4.50;85.03
7824;BME280;3957;48.61947800;9.05303100;2023-02-21T05:17:27;96418.91;;;4.35;85.48
7824;BME280;3957;48.61947800;9.05303100;2023-02-21T05:18:28;96409.41;;;4.24;86.75
7824;BME280;3957;48.61947800;9.05303100;2023-02-21T05:19:28;96416.00;;;4.20;87.55
7824;BME280;3957;48.61947800;9.05303100;2023-02-21T05:20:29;96416.53;;;4.24;87.67
7824;BME280;3957;48.61947800;9.05303100;2023-02-21T05:21:33;96419.63;;;4.19;88.18
7824;BME280;3957;48.61947800;9.05303100;2023-02-21T05:22:34;96415.63;;;4.15;88.08
7824;BME280;3957;48.61947800;9.05303100;2023-02-21T05:23:39;96418.84;;;4.01;88.99
7824;BME280;3957;48.61947800;9.05303100;2023-02-21T05:24:41;96425.44;;;3.97;89.17
7824;BME280;3957;48.61947800;9.05303100;2023-02-21T05:25:42;96422.94;;;3.95;89.67
7824;BME280;3957;48.61947800;9.05303100;2023-02-21T05:26:42;96422.88;;;3.87;90.29
7824;BME280;3957;48.61947800;9.05303100;2023-02-21T05:27:43;96421.91;;;3.70;90.13
7824;BME280;3957;48.61947800;9.05303100;2023-02-21T05:28:43;96421.00;;;3.61;90.99
7824;BME280;3957;48.61947800;9.05303100;2023-02-21T05:29:52;96421.81;;;3.44;91.50
7824;BME280;3957;48.61947800;9.05303100;2023-02-21T05:30:53;96424.03;;;3.30;91.94
7824;BME280;3957;48.61947800;9.05303100;2023-02-21T05:31:53;96425.06;;;3.19;93.24
7824;BME280;3957;48.61947800;9.05303100;2023-02-21T05:32:53;96422.94;;;3.05;93.85
7824;BME280;3957;48.61947800;9.05303100;2023-02-21T05:33:54;96420.50;;;2.94;94.74
7824;BME280;3957;48.61947800;9.05303100;2023-02-21T05:34:54;96418.34;;;2.79;95.20
7824;BME280;3957;48.61947800;9.05303100;2023-02-21T05:35:55;96422.03;;;2.68;96.34
7824;BME280;3957;48.61947800;9.05303100;2023-02-21T05:36:56;96419.41;;;2.59;96.82
7824;BME280;3957;48.61947800;9.05303100;2023-02-21T05:37:56;96413.19;;;2.50;97.42
7824;BME280;3957;48.61947800;9.05303100;2023-02-21T05:38:56;96427.13;;;2.42;98.12
7824;BME280;3957;48.61947800;9.05303100;2023-02-21T05:39:57;96424.09;;;2.37;98.54
7824;BME280;3957;48.61947800;9.05303100;2023-02-21T05:40:58;96415.38;;;2.27;99.30
7824;BME280;3957;48.61947800;9.05303100;2023-02-21T05:41:59;96415.13;;;2.20;99.68
7824;BME280;3957;48.61947800;9.05303100;2023-02-21T05:42:59;96420.09;;;2.23;100.00
7824;BME280;3957;48.61947800;9.05303100;2023-02-21T05:43:59;96411.34;;;2.23;100.00
7824;BME280;3957;48.61947800;9.05303100;2023-02-21T05:45:00;96410.13;;;2.17;100.00
7824;BME280;3957;48.61947800;9.05303100;2023-02-21T05:46:01;96412.19;;;2.13;100.00
7824;BME280;3957;48.61947800;9.05303100;2023-02-21T05:47:02;96413.63;;;2.08;100.00
7824;BME280;3957;48.61947800;9.05303100;2023-02-21T05:48:03;96417.50;;;2.03;100.00
7824;BME280;3957;48.61947800;9.05303100;2023-02-21T05:49:04;96423.09;;;2.00;100.00
7824;BME280;3957;48.61947800;9.05303100;2023-02-21T05:50:05;96419.72;;;1.98;100.00
7824;BME280;3957;48.61947800;9.05303100;2023-02-21T05:51:05;96421.97;;;1.93;100.00
7824;BME280;3957;48.61947800;9.05303100;2023-02-21T05:52:07;96422.25;;;1.90;100.00
7824;BME280;3957;48.61947800;9.05303100;2023-02-21T05:53:08;96423.34;;;1.87;100.00
7824;BME280;3957;48.61947800;9.05303100;2023-02-21T05:54:14;96425.19;;;1.87;100.00
7824;BME280;3957;48.61947800;9.05303100;2023-02-21T05:55:15;96415.72;;;1.84;100.00
7824;BME280;3957;48.61947800;9.05303100;2023-02-21T05:56:16;96422.97;;;1.82;100.00
7824;BME280;3957;48.61947800;9.05303100;2023-02-21T05:57:18;96422.13;;;1.82;100.00
7824;BME280;3957;48.61947800;9.05303100;2023-02-21T05:58:18;96425.72;;;1.81;100.00
7824;BME280;3957;48.61947800;9.05303100;2023-02-21T05:59:19;96425.63;;;1.82;100.00
7824;BME280;3957;48.61947800;9.05303100;2023-02-21T06:00:25;96416.84;;;1.82;100.00
7824;BME280;3957;48.61947800;9.05303100;2023-02-21T06:01:27;96421.16;;;1.83;100.00